sensor_id;sensor_type;location;lat;lon;timestamp;temperature;humidity
39825;DHT22;25503;52.532;13.640;2022-12-18T00:01:02;-4.90;99.90
39825;DHT22;25503;52.532;13.640;2022-12-18T00:03:35;-5.00;99.90
39825;DHT22;25503;52.532;13.640;2022-12-18T00:06:01;-4.90;99.90
39825;DHT22;25503;52.532;13.640;2022-12-18T00:08:28;-5.00;99.90
39825;DHT22;25503;52.532;13.640;2022-12-18T00:10:54;-5.00;99.90
39825;DHT22;25503;52.532;13.640;2022-12-18T00:13:19;-5.00;99.90
39825;DHT22;25503;52.532;13.640;2022-12-18T00:15:45;-5.00;99.90
39825;DHT22;25503;52.532;13.640;2022-12-18T00:18:11;-5.00;99.90
39825;DHT22;25503;52.532;13.640;2022-12-18T00:20:37;-5.00;99.90
39825;DHT22;25503;52.532;13.640;2022-12-18T00:23:04;-5.10;99.90
39825;DHT22;25503;52.532;13.640;2022-12-18T00:25:31;-5.00;99.90
39825;DHT22;25503;52.532;13.640;2022-12-18T00:27:57;-5.10;99.90
39825;DHT22;25503;52.532;13.640;2022-12-18T00:30:23;-5.10;99.90
39825;DHT22;25503;52.532;13.640;2022-12-18T00:32:48;-5.00;99.90
39825;DHT22;25503;52.532;13.640;2022-12-18T00:35:14;-5.10;99.90
39825;DHT22;25503;52.532;13.640;2022-12-18T00:37:39;-5.10;99.90
39825;DHT22;25503;52.532;13.640;2022-12-18T00:40:05;-5.00;99.90
39825;DHT22;25503;52.532;13.640;2022-12-18T00:42:31;-5.00;99.90
39825;DHT22;25503;52.532;13.640;2022-12-18T00:45:16;-5.00;99.90
39825;DHT22;25503;52.532;13.640;2022-12-18T00:47:41;-5.00;99.90
39825;DHT22;25503;52.532;13.640;2022-12-18T00:50:07;-5.00;99.90
39825;DHT22;25503;52.532;13.640;2022-12-18T00:52:33;-5.00;99.90
39825;DHT22;25503;52.532;13.640;2022-12-18T00:54:59;-5.00;99.90
39825;DHT22;25503;52.532;13.640;2022-12-18T00:57:24;-5.00;99.90
39825;DHT22;25503;52.532;13.640;2022-12-18T00:59:50;-5.00;99.90
39825;DHT22;25503;52.532;13.640;2022-12-18T01:02:15;-5.00;99.90
39825;DHT22;25503;52.532;13.640;2022-12-18T01:04:41;-5.00;99.90
39825;DHT22;25503;52.532;13.640;2022-12-18T01:07:06;-5.00;99.90
39825;DHT22;25503;52.532;13.640;2022-12-18T01:09:32;-5.00;99.90
39825;DHT22;25503;52.532;13.640;2022-12-18T01:11:58;-5.00;99.90
39825;DHT22;25503;52.532;13.640;2022-12-18T01:14:23;-5.00;99.90
39825;DHT22;25503;52.532;13.640;2022-12-18T01:16:49;-5.00;99.90
39825;DHT22;25503;52.532;13.640;2022-12-18T01:19:14;-5.00;99.90
39825;DHT22;25503;52.532;13.640;2022-12-18T01:21:40;-5.00;99.90
39825;DHT22;25503;52.532;13.640;2022-12-18T01:24:06;-5.00;99.90
39825;DHT22;25503;52.532;13.640;2022-12-18T01:26:31;-5.00;99.90
39825;DHT22;25503;52.532;13.640;2022-12-18T01:28:57;-5.00;99.90
39825;DHT22;25503;52.532;13.640;2022-12-18T01:31:28;-5.00;99.90
39825;DHT22;25503;52.532;13.640;2022-12-18T01:33:54;-5.00;99.90
39825;DHT22;25503;52.532;13.640;2022-12-18T01:36:31;-5.00;99.90
39825;DHT22;25503;52.532;13.640;2022-12-18T01:39:04;-4.90;99.90
39825;DHT22;25503;52.532;13.640;2022-12-18T01:41:31;-5.00;99.90
39825;DHT22;25503;52.532;13.640;2022-12-18T01:47:57;-5.00;99.90
39825;DHT22;25503;52.532;13.640;2022-12-18T01:50:14;-5.10;99.90
39825;DHT22;25503;52.532;13.640;2022-12-18T01:52:43;-5.10;99.90
39825;DHT22;25503;52.532;13.640;2022-12-18T01:55:10;-5.10;99.90
39825;DHT22;25503;52.532;13.640;2022-12-18T01:57:38;-5.10;99.90
39825;DHT22;25503;52.532;13.640;2022-12-18T02:00:09;-5.20;99.90
39825;DHT22;25503;52.532;13.640;2022-12-18T02:02:35;-5.20;99.90
39825;DHT22;25503;52.532;13.640;2022-12-18T02:05:02;-5.20;99.90
39825;DHT22;25503;52.532;13.640;2022-12-18T02:07:56;-5.20;99.90
39825;DHT22;25503;52.532;13.640;2022-12-18T02:10:31;-5.20;99.90
39825;DHT22;25503;52.532;13.640;2022-12-18T02:13:12;-5.20;99.90
39825;DHT22;25503;52.532;13.640;2022-12-18T02:18:32;-5.20;99.90
39825;DHT22;25503;52.532;13.640;2022-12-18T02:21:00;-5.30;99.90
39825;DHT22;25503;52.532;13.640;2022-12-18T02:26:22;-5.30;99.90
39825;DHT22;25503;52.532;13.640;2022-12-18T02:28:57;-5.40;99.90
39825;DHT22;25503;52.532;13.640;2022-12-18T02:31:28;-5.40;99.90
39825;DHT22;25503;52.532;13.640;2022-12-18T02:34:00;-5.40;99.90
39825;DHT22;25503;52.532;13.640;2022-12-18T02:36:28;-5.40;99.90
39825;DHT22;25503;52.532;13.640;2022-12-18T02:38:55;-5.30;99.90
39825;DHT22;25503;52.532;13.640;2022-12-18T02:41:22;-5.40;99.90
39825;DHT22;25503;52.532;13.640;2022-12-18T02:44:00;-5.40;99.90
39825;DHT22;25503;52.532;13.640;2022-12-18T02:46:35;-5.40;99.90
39825;DHT22;25503;52.532;13.640;2022-12-18T02:52:03;-5.40;99.90
39825;DHT22;25503;52.532;13.640;2022-12-18T02:57:17;-5.40;99.90
39825;DHT22;25503;52.532;13.640;2022-12-18T03:00:18;-5.40;99.90
39825;DHT22;25503;52.532;13.640;2022-12-18T03:05:24;-5.40;99.90
39825;DHT22;25503;52.532;13.640;2022-12-18T03:08:07;-5.40;99.90
39825;DHT22;25503;52.532;13.640;2022-12-18T03:10:37;-5.50;99.90
39825;DHT22;25503;52.532;13.640;2022-12-18T03:13:07;-5.50;99.90
39825;DHT22;25503;52.532;13.640;2022-12-18T03:15:48;-5.50;99.90
39825;DHT22;25503;52.532;13.640;2022-12-18T03:18:25;-5.50;99.90
39825;DHT22;25503;52.532;13.640;2022-12-18T03:20:53;-5.50;99.90
39825;DHT22;25503;52.532;13.640;2022-12-18T03:23:25;-5.50;99.90
39825;DHT22;25503;52.532;13.640;2022-12-18T03:25:58;-5.50;99.90
39825;DHT22;25503;52.532;13.640;2022-12-18T03:28:27;-5.50;99.90
39825;DHT22;25503;52.532;13.640;2022-12-18T03:30:58;-5.50;99.90
39825;DHT22;25503;52.532;13.640;2022-12-18T03:33:32;-5.50;99.90
39825;DHT22;25503;52.532;13.640;2022-12-18T03:36:00;-5.50;99.90
39825;DHT22;25503;52.532;13.640;2022-12-18T03:38:26;-5.50;99.90
39825;DHT22;25503;52.532;13.640;2022-12-18T03:43:38;-5.50;99.90
39825;DHT22;25503;52.532;13.640;2022-12-18T03:46:19;-5.60;99.90
39825;DHT22;25503;52.532;13.640;2022-12-18T03:48:52;-5.60;99.90
39825;DHT22;25503;52.532;13.640;2022-12-18T03:51:42;-5.60;99.90
39825;DHT22;25503;52.532;13.640;2022-12-18T03:54:10;-5.60;99.90
39825;DHT22;25503;52.532;13.640;2022-12-18T03:56:46;-5.60;99.90
39825;DHT22;25503;52.532;13.640;2022-12-18T03:59:14;-5.60;99.90
39825;DHT22;25503;52.532;13.640;2022-12-18T04:01:46;-5.60;99.90
39825;DHT22;25503;52.532;13.640;2022-12-18T04:04:13;-5.70;99.90
39825;DHT22;25503;52.532;13.640;2022-12-18T04:06:41;-5.70;99.90
39825;DHT22;25503;52.532;13.640;2022-12-18T04:09:07;-5.70;99.90
39825;DHT22;25503;52.532;13.640;2022-12-18T04:11:33;-5.70;99.90
39825;DHT22;25503;52.532;13.640;2022-12-18T04:13:59;-5.70;99.90
39825;DHT22;25503;52.532;13.640;2022-12-18T04:16:26;-5.70;99.90
39825;DHT22;25503;52.532;13.640;2022-12-18T04:18:52;-5.70;99.90
39825;DHT22;25503;52.532;13.640;2022-12-18T04:21:17;-5.70;99.90
39825;DHT22;25503;52.532;13.640;2022-12-18T04:23:43;-5.70;99.90
39825;DHT22;25503;52.532;13.640;2022-12-18T04:26:09;-5.70;99.90
39825;DHT22;25503;52.532;13.640;2022-12-18T04:28:34;-5.70;99.90
39825;DHT22;25503;52.532;13.640;2022-12-18T04:31:00;-5.70;99.90
39825;DHT22;25503;52.532;13.640;2022-12-18T04:33:25;-5.70;99.90
39825;DHT22;25503;52.532;13.640;2022-12-18T04:35:51;-5.70;99.90
39825;DHT22;25503;52.532;13.640;2022-12-18T04:38:16;-5.70;99.90
39825;DHT22;25503;52.532;13.640;2022-12-18T04:40:42;-5.70;99.90
39825;DHT22;25503;52.532;13.640;2022-12-18T04:43:08;-5.70;99.90
39825;DHT22;25503;52.532;13.640;2022-12-18T04:45:34;-5.70;99.90
39825;DHT22;25503;52.532;13.640;2022-12-18T04:48:00;-5.80;99.90
39825;DHT22;25503;52.532;13.640;2022-12-18T04:50:27;-5.80;99.90
39825;DHT22;25503;52.532;13.640;2022-12-18T04:52:53;-5.90;99.90
39825;DHT22;25503;52.532;13.640;2022-12-18T04:55:19;-5.90;99.90
39825;DHT22;25503;52.532;13.640;2022-12-18T04:57:45;-6.00;99.90
39825;DHT22;25503;52.532;13.640;2022-12-18T05:00:11;-6.00;99.90
39825;DHT22;25503;52.532;13.640;2022-12-18T05:02:37;-6.00;99.90
39825;DHT22;25503;52.532;13.640;2022-12-18T05:05:03;-6.00;99.90
39825;DHT22;25503;52.532;13.640;2022-12-18T05:07:28;-6.00;99.90
39825;DHT22;25503;52.532;13.640;2022-12-18T05:09:54;-6.00;99.90
39825;DHT22;25503;52.532;13.640;2022-12-18T05:12:19;-6.00;99.90
39825;DHT22;25503;52.532;13.640;2022-12-18T05:14:45;-6.00;99.90
39825;DHT22;25503;52.532;13.640;2022-12-18T05:17:10;-6.00;99.90
39825;DHT22;25503;52.532;13.640;2022-12-18T05:19:36;-6.00;99.90
39825;DHT22;25503;52.532;13.640;2022-12-18T05:22:04;-6.00;99.90
39825;DHT22;25503;52.532;13.640;2022-12-18T05:24:33;-6.00;99.90
39825;DHT22;25503;52.532;13.640;2022-12-18T05:26:58;-6.00;99.90
39825;DHT22;25503;52.532;13.640;2022-12-18T05:29:24;-6.00;99.90
39825;DHT22;25503;52.532;13.640;2022-12-18T05:31:49;-6.00;99.90
39825;DHT22;25503;52.532;13.640;2022-12-18T05:34:15;-6.00;99.90
39825;DHT22;25503;52.532;13.640;2022-12-18T05:36:41;-6.00;99.90
39825;DHT22;25503;52.532;13.640;2022-12-18T05:39:07;-6.00;99.90
39825;DHT22;25503;52.532;13.640;2022-12-18T05:41:32;-6.10;99.90
39825;DHT22;25503;52.532;13.640;2022-12-18T05:43:58;-6.10;99.90
39825;DHT22;25503;52.532;13.640;2022-12-18T05:46:24;-6.10;99.90
39825;DHT22;25503;52.532;13.640;2022-12-18T05:48:50;-6.10;99.90
39825;DHT22;25503;52.532;13.640;2022-12-18T05:51:18;-6.10;99.90
39825;DHT22;25503;52.532;13.640;2022-12-18T05:53:44;-6.10;99.90
39825;DHT22;25503;52.532;13.640;2022-12-18T05:56:13;-6.10;99.90
39825;DHT22;25503;52.532;13.640;2022-12-18T05:58:40;-6.10;99.90
39825;DHT22;25503;52.532;13.640;2022-12-18T06:01:18;-6.10;99.90
39825;DHT22;25503;52.532;13.640;2022-12-18T06:03:44;-6.10;99.90
39825;DHT22;25503;52.532;13.640;2022-12-18T06:06:18;-6.10;99.90
39825;DHT22;25503;52.532;13.640;2022-12-18T06:08:45;-6.10;99.90
39825;DHT22;25503;52.532;13.640;2022-12-18T06:11:11;-6.00;99.90
39825;DHT22;25503;52.532;13.640;2022-12-18T06:13:37;-6.00;99.90
39825;DHT22;25503;52.532;13.640;2022-12-18T06:16:06;-6.10;99.90
39825;DHT22;25503;52.532;13.640;2022-12-18T06:18:33;-6.10;99.90
39825;DHT22;25503;52.532;13.640;2022-12-18T06:20:59;-6.10;99.90
39825;DHT22;25503;52.532;13.640;2022-12-18T06:23:25;-6.10;99.90
39825;DHT22;25503;52.532;13.640;2022-12-18T06:25:51;-6.00;99.90
39825;DHT22;25503;52.532;13.640;2022-12-18T06:28:17;-6.00;99.90
39825;DHT22;25503;52.532;13.640;2022-12-18T06:30:44;-6.00;99.90
39825;DHT22;25503;52.532;13.640;2022-12-18T06:33:10;-6.00;99.90
39825;DHT22;25503;52.532;13.640;2022-12-18T06:35:35;-6.00;99.90
39825;DHT22;25503;52.532;13.640;2022-12-18T06:38:02;-6.00;99.90
39825;DHT22;25503;52.532;13.640;2022-12-18T06:40:27;-6.00;99.90
39825;DHT22;25503;52.532;13.640;2022-12-18T06:42:53;-6.00;99.90
39825;DHT22;25503;52.532;13.640;2022-12-18T06:45:18;-6.00;99.90
39825;DHT22;25503;52.532;13.640;2022-12-18T06:47:44;-6.00;99.90
39825;DHT22;25503;52.532;13.640;2022-12-18T06:50:10;-6.00;99.90
39825;DHT22;25503;52.532;13.640;2022-12-18T06:52:35;-6.00;99.90
39825;DHT22;25503;52.532;13.640;2022-12-18T06:55:02;-6.00;99.90
39825;DHT22;25503;52.532;13.640;2022-12-18T06:57:28;-6.00;99.90
39825;DHT22;25503;52.532;13.640;2022-12-18T06:59:54;-6.00;99.90
39825;DHT22;25503;52.532;13.640;2022-12-18T07:02:20;-6.00;99.90
39825;DHT22;25503;52.532;13.640;2022-12-18T07:04:46;-6.00;99.90
39825;DHT22;25503;52.532;13.640;2022-12-18T07:07:14;-6.00;99.90
39825;DHT22;25503;52.532;13.640;2022-12-18T07:09:40;-6.00;99.90
39825;DHT22;25503;52.532;13.640;2022-12-18T07:12:05;-6.00;99.90
39825;DHT22;25503;52.532;13.640;2022-12-18T07:14:33;-5.90;99.90
39825;DHT22;25503;52.532;13.640;2022-12-18T07:16:58;-5.90;99.90
39825;DHT22;25503;52.532;13.640;2022-12-18T07:19:24;-5.90;99.90
39825;DHT22;25503;52.532;13.640;2022-12-18T07:21:50;-6.00;99.90
39825;DHT22;25503;52.532;13.640;2022-12-18T07:24:16;-6.00;99.90
39825;DHT22;25503;52.532;13.640;2022-12-18T07:26:42;-6.00;99.90
39825;DHT22;25503;52.532;13.640;2022-12-18T07:29:07;-6.00;99.90
39825;DHT22;25503;52.532;13.640;2022-12-18T07:31:33;-6.00;99.90
39825;DHT22;25503;52.532;13.640;2022-12-18T07:33:59;-5.90;99.90
39825;DHT22;25503;52.532;13.640;2022-12-18T07:36:24;-5.90;99.90
39825;DHT22;25503;52.532;13.640;2022-12-18T07:38:50;-5.90;99.90
39825;DHT22;25503;52.532;13.640;2022-12-18T07:41:17;-5.90;99.90
39825;DHT22;25503;52.532;13.640;2022-12-18T07:43:44;-5.80;99.90
39825;DHT22;25503;52.532;13.640;2022-12-18T07:46:10;-5.80;99.90
39825;DHT22;25503;52.532;13.640;2022-12-18T07:48:36;-5.80;99.90
39825;DHT22;25503;52.532;13.640;2022-12-18T07:51:06;-5.80;99.90
39825;DHT22;25503;52.532;13.640;2022-12-18T07:53:32;-5.80;99.90
39825;DHT22;25503;52.532;13.640;2022-12-18T07:56:07;-5.70;99.90
39825;DHT22;25503;52.532;13.640;2022-12-18T07:58:34;-5.70;99.90
39825;DHT22;25503;52.532;13.640;2022-12-18T08:03:29;-5.70;99.90
39825;DHT22;25503;52.532;13.640;2022-12-18T08:06:02;-5.70;99.90
39825;DHT22;25503;52.532;13.640;2022-12-18T08:08:28;-5.70;99.90
39825;DHT22;25503;52.532;13.640;2022-12-18T08:10:54;-5.70;99.90
39825;DHT22;25503;52.532;13.640;2022-12-18T08:13:20;-5.70;99.90
39825;DHT22;25503;52.532;13.640;2022-12-18T08:15:46;-5.70;99.90
39825;DHT22;25503;52.532;13.640;2022-12-18T08:18:11;-5.60;99.90
39825;DHT22;25503;52.532;13.640;2022-12-18T08:20:38;-5.60;99.90
39825;DHT22;25503;52.532;13.640;2022-12-18T08:23:03;-5.60;99.90
39825;DHT22;25503;52.532;13.640;2022-12-18T08:25:29;-5.50;99.90
39825;DHT22;25503;52.532;13.640;2022-12-18T08:27:55;-5.50;99.90
39825;DHT22;25503;52.532;13.640;2022-12-18T08:30:23;-5.50;99.90
39825;DHT22;25503;52.532;13.640;2022-12-18T08:32:51;-5.50;99.90
39825;DHT22;25503;52.532;13.640;2022-12-18T08:35:18;-5.40;99.90
39825;DHT22;25503;52.532;13.640;2022-12-18T08:37:43;-5.40;99.90
39825;DHT22;25503;52.532;13.640;2022-12-18T08:40:09;-5.40;99.90
39825;DHT22;25503;52.532;13.640;2022-12-18T08:42:35;-5.30;99.90
39825;DHT22;25503;52.532;13.640;2022-12-18T08:45:19;-5.30;99.90
39825;DHT22;25503;52.532;13.640;2022-12-18T08:47:45;-5.30;99.90
39825;DHT22;25503;52.532;13.640;2022-12-18T08:50:10;-5.30;99.90
39825;DHT22;25503;52.532;13.640;2022-12-18T08:52:37;-5.20;99.90
39825;DHT22;25503;52.532;13.640;2022-12-18T08:55:03;-5.20;99.90
39825;DHT22;25503;52.532;13.640;2022-12-18T08:57:29;-5.10;99.90
39825;DHT22;25503;52.532;13.640;2022-12-18T08:59:55;-5.10;99.90
39825;DHT22;25503;52.532;13.640;2022-12-18T09:02:20;-5.10;99.90
39825;DHT22;25503;52.532;13.640;2022-12-18T09:04:49;-5.00;99.90
39825;DHT22;25503;52.532;13.640;2022-12-18T09:07:15;-5.00;99.90
39825;DHT22;25503;52.532;13.640;2022-12-18T09:09:40;-4.90;99.90
39825;DHT22;25503;52.532;13.640;2022-12-18T09:12:06;-4.90;99.90
39825;DHT22;25503;52.532;13.640;2022-12-18T09:14:32;-4.90;99.90
39825;DHT22;25503;52.532;13.640;2022-12-18T09:16:57;-4.80;99.90
39825;DHT22;25503;52.532;13.640;2022-12-18T09:19:23;-4.80;99.90
39825;DHT22;25503;52.532;13.640;2022-12-18T09:21:48;-4.80;99.90
39825;DHT22;25503;52.532;13.640;2022-12-18T09:24:15;-4.70;99.90
39825;DHT22;25503;52.532;13.640;2022-12-18T09:26:41;-4.70;99.90
39825;DHT22;25503;52.532;13.640;2022-12-18T09:29:08;-4.60;99.90
39825;DHT22;25503;52.532;13.640;2022-12-18T09:31:35;-4.60;99.90
39825;DHT22;25503;52.532;13.640;2022-12-18T09:34:01;-4.60;99.90
39825;DHT22;25503;52.532;13.640;2022-12-18T09:36:27;-4.60;99.90
39825;DHT22;25503;52.532;13.640;2022-12-18T09:38:52;-4.50;99.90
39825;DHT22;25503;52.532;13.640;2022-12-18T09:43:58;-4.40;99.90
39825;DHT22;25503;52.532;13.640;2022-12-18T09:46:38;-4.40;99.90
39825;DHT22;25503;52.532;13.640;2022-12-18T09:49:10;-4.40;99.90
39825;DHT22;25503;52.532;13.640;2022-12-18T09:51:50;-4.40;99.90
39825;DHT22;25503;52.532;13.640;2022-12-18T09:54:31;-4.40;99.90
39825;DHT22;25503;52.532;13.640;2022-12-18T09:56:58;-4.30;99.90
39825;DHT22;25503;52.532;13.640;2022-12-18T10:01:58;-4.30;99.90
39825;DHT22;25503;52.532;13.640;2022-12-18T10:04:24;-4.20;99.90
39825;DHT22;25503;52.532;13.640;2022-12-18T10:07:03;-4.20;99.90
39825;DHT22;25503;52.532;13.640;2022-12-18T10:09:53;-4.20;99.90
39825;DHT22;25503;52.532;13.640;2022-12-18T10:12:27;-4.20;99.90
39825;DHT22;25503;52.532;13.640;2022-12-18T10:21:10;-4.10;99.90
39825;DHT22;25503;52.532;13.640;2022-12-18T10:26:15;-4.10;99.90
39825;DHT22;25503;52.532;13.640;2022-12-18T10:28:41;-4.00;99.90
39825;DHT22;25503;52.532;13.640;2022-12-18T10:31:18;-4.00;99.90
39825;DHT22;25503;52.532;13.640;2022-12-18T10:33:45;-4.00;99.90
39825;DHT22;25503;52.532;13.640;2022-12-18T10:36:10;-4.00;99.90
39825;DHT22;25503;52.532;13.640;2022-12-18T10:38:36;-4.00;99.90
39825;DHT22;25503;52.532;13.640;2022-12-18T10:43:43;-4.00;99.90
39825;DHT22;25503;52.532;13.640;2022-12-18T10:53:59;-3.90;99.90
39825;DHT22;25503;52.532;13.640;2022-12-18T10:56:27;-3.80;99.90
39825;DHT22;25503;52.532;13.640;2022-12-18T10:59:00;-3.80;99.90
39825;DHT22;25503;52.532;13.640;2022-12-18T11:01:26;-3.80;99.90
39825;DHT22;25503;52.532;13.640;2022-12-18T11:06:21;-3.90;99.90
39825;DHT22;25503;52.532;13.640;2022-12-18T11:09:03;-3.90;99.90
39825;DHT22;25503;52.532;13.640;2022-12-18T11:11:29;-3.90;99.90
39825;DHT22;25503;52.532;13.640;2022-12-18T11:14:06;-3.90;99.90
39825;DHT22;25503;52.532;13.640;2022-12-18T11:16:44;-3.90;99.90
39825;DHT22;25503;52.532;13.640;2022-12-18T11:19:34;-3.90;99.90
39825;DHT22;25503;52.532;13.640;2022-12-18T11:22:01;-3.90;99.90
39825;DHT22;25503;52.532;13.640;2022-12-18T11:24:33;-3.90;99.90
39825;DHT22;25503;52.532;13.640;2022-12-18T11:27:16;-3.90;99.90
39825;DHT22;25503;52.532;13.640;2022-12-18T11:29:43;-3.90;99.90
39825;DHT22;25503;52.532;13.640;2022-12-18T11:34:52;-3.80;99.90
39825;DHT22;25503;52.532;13.640;2022-12-18T11:37:18;-3.80;99.90
39825;DHT22;25503;52.532;13.640;2022-12-18T11:40:01;-3.80;99.90
39825;DHT22;25503;52.532;13.640;2022-12-18T11:42:45;-3.80;99.90
39825;DHT22;25503;52.532;13.640;2022-12-18T11:50:51;-3.70;99.90
39825;DHT22;25503;52.532;13.640;2022-12-18T11:53:18;-3.70;99.90
39825;DHT22;25503;52.532;13.640;2022-12-18T12:28:12;-3.80;99.90
39825;DHT22;25503;52.532;13.640;2022-12-18T12:33:27;-3.80;99.90
39825;DHT22;25503;52.532;13.640;2022-12-18T12:38:40;-3.80;99.90
39825;DHT22;25503;52.532;13.640;2022-12-18T12:41:11;-3.80;99.90
39825;DHT22;25503;52.532;13.640;2022-12-18T12:43:58;-3.70;99.90
39825;DHT22;25503;52.532;13.640;2022-12-18T12:46:25;-3.70;99.90
39825;DHT22;25503;52.532;13.640;2022-12-18T12:51:26;-3.70;99.90
39825;DHT22;25503;52.532;13.640;2022-12-18T12:53:54;-3.70;99.90
39825;DHT22;25503;52.532;13.640;2022-12-18T12:56:22;-3.70;99.90
39825;DHT22;25503;52.532;13.640;2022-12-18T12:59:08;-3.70;99.90
39825;DHT22;25503;52.532;13.640;2022-12-18T13:07:14;-3.60;99.90
39825;DHT22;25503;52.532;13.640;2022-12-18T13:15:33;-3.70;99.90
39825;DHT22;25503;52.532;13.640;2022-12-18T13:18:13;-3.60;99.90
39825;DHT22;25503;52.532;13.640;2022-12-18T13:21:24;-3.60;99.90
39825;DHT22;25503;52.532;13.640;2022-12-18T13:23:31;-3.60;99.90
39825;DHT22;25503;52.532;13.640;2022-12-18T13:34:19;-3.60;99.90
39825;DHT22;25503;52.532;13.640;2022-12-18T13:36:45;-3.60;99.90
39825;DHT22;25503;52.532;13.640;2022-12-18T13:41:48;-3.60;99.90
39825;DHT22;25503;52.532;13.640;2022-12-18T13:44:35;-3.60;99.90
39825;DHT22;25503;52.532;13.640;2022-12-18T13:47:03;-3.60;99.90
39825;DHT22;25503;52.532;13.640;2022-12-18T13:49:40;-3.50;99.90
39825;DHT22;25503;52.532;13.640;2022-12-18T13:52:22;-3.50;99.90
39825;DHT22;25503;52.532;13.640;2022-12-18T13:54:55;-3.60;99.90
39825;DHT22;25503;52.532;13.640;2022-12-18T13:57:27;-3.60;99.90
39825;DHT22;25503;52.532;13.640;2022-12-18T13:59:53;-3.60;99.90
39825;DHT22;25503;52.532;13.640;2022-12-18T14:02:26;-3.60;99.90
39825;DHT22;25503;52.532;13.640;2022-12-18T14:04:52;-3.60;99.90
39825;DHT22;25503;52.532;13.640;2022-12-18T14:07:23;-3.60;99.90
39825;DHT22;25503;52.532;13.640;2022-12-18T14:09:59;-3.60;99.90
39825;DHT22;25503;52.532;13.640;2022-12-18T14:12:31;-3.60;99.90
39825;DHT22;25503;52.532;13.640;2022-12-18T14:18:02;-3.50;99.90
39825;DHT22;25503;52.532;13.640;2022-12-18T14:20:31;-3.50;99.90
39825;DHT22;25503;52.532;13.640;2022-12-18T14:22:58;-3.50;99.90
39825;DHT22;25503;52.532;13.640;2022-12-18T14:25:27;-3.50;99.90
39825;DHT22;25503;52.532;13.640;2022-12-18T14:28:12;-3.50;99.90
39825;DHT22;25503;52.532;13.640;2022-12-18T14:30:42;-3.50;99.90
39825;DHT22;25503;52.532;13.640;2022-12-18T14:33:16;-3.50;99.90
39825;DHT22;25503;52.532;13.640;2022-12-18T14:36:03;-3.50;99.90
39825;DHT22;25503;52.532;13.640;2022-12-18T14:38:35;-3.50;99.90
39825;DHT22;25503;52.532;13.640;2022-12-18T14:43:34;-3.50;99.90
39825;DHT22;25503;52.532;13.640;2022-12-18T14:46:02;-3.50;99.90
39825;DHT22;25503;52.532;13.640;2022-12-18T14:48:35;-3.60;99.90
39825;DHT22;25503;52.532;13.640;2022-12-18T14:51:26;-3.50;99.90
39825;DHT22;25503;52.532;13.640;2022-12-18T14:54:00;-3.50;99.90
39825;DHT22;25503;52.532;13.640;2022-12-18T14:56:28;-3.60;99.90
39825;DHT22;25503;52.532;13.640;2022-12-18T15:01:29;-3.60;99.90
39825;DHT22;25503;52.532;13.640;2022-12-18T15:03:55;-3.60;99.90
39825;DHT22;25503;52.532;13.640;2022-12-18T15:06:36;-3.60;99.90
39825;DHT22;25503;52.532;13.640;2022-12-18T15:09:23;-3.60;99.90
39825;DHT22;25503;52.532;13.640;2022-12-18T15:11:54;-3.60;99.90
39825;DHT22;25503;52.532;13.640;2022-12-18T15:17:02;-3.60;99.90
39825;DHT22;25503;52.532;13.640;2022-12-18T15:19:38;-3.60;99.90
39825;DHT22;25503;52.532;13.640;2022-12-18T15:22:12;-3.60;99.90
39825;DHT22;25503;52.532;13.640;2022-12-18T15:24:42;-3.60;99.90
39825;DHT22;25503;52.532;13.640;2022-12-18T15:27:24;-3.60;99.90
39825;DHT22;25503;52.532;13.640;2022-12-18T15:32:33;-3.60;99.90
39825;DHT22;25503;52.532;13.640;2022-12-18T15:37:44;-3.60;99.90
39825;DHT22;25503;52.532;13.640;2022-12-18T15:40:21;-3.60;99.90
39825;DHT22;25503;52.532;13.640;2022-12-18T15:42:48;-3.60;99.90
39825;DHT22;25503;52.532;13.640;2022-12-18T15:45:33;-3.60;99.90
39825;DHT22;25503;52.532;13.640;2022-12-18T15:47:59;-3.60;99.90
39825;DHT22;25503;52.532;13.640;2022-12-18T15:50:25;-3.60;99.90
39825;DHT22;25503;52.532;13.640;2022-12-18T15:52:52;-3.60;99.90
39825;DHT22;25503;52.532;13.640;2022-12-18T15:55:22;-3.60;99.90
39825;DHT22;25503;52.532;13.640;2022-12-18T15:58:08;-3.70;99.90
39825;DHT22;25503;52.532;13.640;2022-12-18T16:00:35;-3.70;99.90
39825;DHT22;25503;52.532;13.640;2022-12-18T16:03:03;-3.70;99.90
39825;DHT22;25503;52.532;13.640;2022-12-18T16:05:29;-3.60;99.90
39825;DHT22;25503;52.532;13.640;2022-12-18T16:07:55;-3.70;99.90
39825;DHT22;25503;52.532;13.640;2022-12-18T16:10:21;-3.70;99.90
39825;DHT22;25503;52.532;13.640;2022-12-18T16:12:47;-3.70;99.90
39825;DHT22;25503;52.532;13.640;2022-12-18T16:15:14;-3.70;99.90
39825;DHT22;25503;52.532;13.640;2022-12-18T16:17:46;-3.70;99.90
39825;DHT22;25503;52.532;13.640;2022-12-18T16:20:14;-3.70;99.90
39825;DHT22;25503;52.532;13.640;2022-12-18T16:22:41;-3.70;99.90
39825;DHT22;25503;52.532;13.640;2022-12-18T16:25:19;-3.70;99.90
39825;DHT22;25503;52.532;13.640;2022-12-18T16:27:48;-3.70;99.90
39825;DHT22;25503;52.532;13.640;2022-12-18T16:30:16;-3.70;99.90
39825;DHT22;25503;52.532;13.640;2022-12-18T16:32:42;-3.70;99.90
39825;DHT22;25503;52.532;13.640;2022-12-18T16:35:11;-3.70;99.90
39825;DHT22;25503;52.532;13.640;2022-12-18T16:37:36;-3.70;99.90
39825;DHT22;25503;52.532;13.640;2022-12-18T16:40:02;-3.70;99.90
39825;DHT22;25503;52.532;13.640;2022-12-18T16:42:28;-3.70;99.90
39825;DHT22;25503;52.532;13.640;2022-12-18T16:44:54;-3.70;99.90
39825;DHT22;25503;52.532;13.640;2022-12-18T16:47:19;-3.70;99.90
39825;DHT22;25503;52.532;13.640;2022-12-18T16:49:45;-3.70;99.90
39825;DHT22;25503;52.532;13.640;2022-12-18T16:52:11;-3.70;99.90
39825;DHT22;25503;52.532;13.640;2022-12-18T16:54:37;-3.70;99.90
39825;DHT22;25503;52.532;13.640;2022-12-18T16:57:03;-3.70;99.90
39825;DHT22;25503;52.532;13.640;2022-12-18T16:59:35;-3.70;99.90
39825;DHT22;25503;52.532;13.640;2022-12-18T17:02:03;-3.70;99.90
39825;DHT22;25503;52.532;13.640;2022-12-18T17:04:29;-3.70;99.90
39825;DHT22;25503;52.532;13.640;2022-12-18T17:06:54;-3.70;99.90
39825;DHT22;25503;52.532;13.640;2022-12-18T17:09:21;-3.80;99.90
39825;DHT22;25503;52.532;13.640;2022-12-18T17:11:50;-3.80;99.90
39825;DHT22;25503;52.532;13.640;2022-12-18T17:14:18;-3.80;99.90
39825;DHT22;25503;52.532;13.640;2022-12-18T17:16:45;-3.80;99.90
39825;DHT22;25503;52.532;13.640;2022-12-18T17:19:12;-3.80;99.90
39825;DHT22;25503;52.532;13.640;2022-12-18T17:21:38;-3.80;99.90
39825;DHT22;25503;52.532;13.640;2022-12-18T17:24:04;-3.80;99.90
39825;DHT22;25503;52.532;13.640;2022-12-18T17:26:29;-3.90;99.90
39825;DHT22;25503;52.532;13.640;2022-12-18T17:28:56;-3.90;99.90
39825;DHT22;25503;52.532;13.640;2022-12-18T17:31:24;-3.90;99.90
39825;DHT22;25503;52.532;13.640;2022-12-18T17:33:50;-3.90;99.90
39825;DHT22;25503;52.532;13.640;2022-12-18T17:36:17;-3.90;99.90
39825;DHT22;25503;52.532;13.640;2022-12-18T17:38:43;-4.00;99.90
39825;DHT22;25503;52.532;13.640;2022-12-18T17:41:14;-4.00;99.90
39825;DHT22;25503;52.532;13.640;2022-12-18T17:43:39;-4.00;99.90